Metar Aviation Weather Data YMML

18°C Temp
14°C Dewpoint
% Humidity
Temperature
32 KM/H
20 MPH
17 KTS
10°
Due North

Wind Speed
Clear
Conditions
Pressure 1009.92 (hPa) - 29.82 (in)
Visibility 6.2 (mi) - 10 (km)

Current Conditions
YMML
Metar :YMML 290930Z 01017KT CAVOK 18/14 Q1010 FM0930 MOD TURB BLW 5000FT TL1100
Sun 29th March 20:30 pm

  Metar Aviation API Data Provided by https://www.checkwx.com/ PHP scripts by weather34.com ©2020